createdAt,value
2022-08-27T00:00:16.803Z,5.63
2022-08-27T00:02:44.295Z,6.57
2022-08-27T00:05:12.447Z,5.30
2022-08-27T00:07:39.601Z,4.63
2022-08-27T00:10:08.571Z,4.80
2022-08-27T00:12:35.780Z,5.50
2022-08-27T00:15:03.258Z,5.25
2022-08-27T00:17:29.878Z,6.53
2022-08-27T00:19:56.498Z,5.57
2022-08-27T00:22:23.498Z,5.03
2022-08-27T00:24:50.105Z,5.47
2022-08-27T00:27:17.316Z,6.43
2022-08-27T00:29:43.996Z,5.85
2022-08-27T00:32:10.792Z,5.28
2022-08-27T00:34:37.438Z,5.60
2022-08-27T00:37:06.617Z,6.53
2022-08-27T00:39:34.976Z,5.70
2022-08-27T00:42:01.652Z,5.80
2022-08-27T00:44:28.741Z,6.57
2022-08-27T00:47:00.674Z,5.50
2022-08-27T00:52:07.235Z,4.65
2022-08-27T00:54:34.456Z,4.95
2022-08-27T00:57:03.452Z,5.35
2022-08-27T00:59:31.211Z,5.35
2022-08-27T01:02:17.500Z,5.70
2022-08-27T01:05:04.493Z,4.88
2022-08-27T01:07:36.436Z,5.05
2022-08-27T01:12:32.981Z,4.65
2022-08-27T01:15:03.083Z,5.68
2022-08-27T01:17:31.045Z,5.68
2022-08-27T01:20:02.256Z,5.43
2022-08-27T01:23:00.262Z,4.95
2022-08-27T01:25:28.937Z,5.32
2022-08-27T01:28:00.608Z,5.65
2022-08-27T01:30:27.954Z,4.88
2022-08-27T01:32:54.811Z,5.03
2022-08-27T01:35:23.334Z,5.43
2022-08-27T01:37:53.707Z,5.07
2022-08-27T01:40:23.966Z,4.60
2022-08-27T01:42:54.992Z,4.57
2022-08-27T01:45:28.149Z,5.03
2022-08-27T01:47:55.046Z,4.88
2022-08-27T01:50:25.801Z,5.38
2022-08-27T01:52:53.217Z,5.40
2022-08-27T01:55:23.568Z,5.60
2022-08-27T01:57:50.489Z,5.53
2022-08-27T02:00:24.633Z,6.25
2022-08-27T02:02:51.843Z,4.93
2022-08-27T02:05:19.220Z,5.50
2022-08-27T02:07:45.960Z,5.05
2022-08-27T02:10:17.794Z,5.78
2022-08-27T02:12:44.420Z,5.68
2022-08-27T02:15:11.937Z,7.45
2022-08-27T02:17:38.696Z,6.28
2022-08-27T02:20:09.404Z,6.57
2022-08-27T02:22:36.083Z,6.50
2022-08-27T02:25:03.327Z,6.30
2022-08-27T02:27:30.140Z,5.38
2022-08-27T02:29:56.766Z,4.97
2022-08-27T02:32:31.716Z,4.85
2022-08-27T02:35:00.065Z,4.97
2022-08-27T02:37:27.340Z,5.43
2022-08-27T02:39:54.251Z,5.03
2022-08-27T02:42:21.031Z,5.50
2022-08-27T02:44:48.018Z,5.07
2022-08-27T02:47:16.697Z,4.90
2022-08-27T02:49:44.463Z,5.85
2022-08-27T02:52:11.407Z,5.60
2022-08-27T02:54:38.118Z,5.65
2022-08-27T02:57:06.211Z,5.25
2022-08-27T02:59:32.885Z,5.38
2022-08-27T03:01:59.577Z,5.82
2022-08-27T03:04:27.996Z,5.70
2022-08-27T03:06:54.840Z,4.90
2022-08-27T03:09:21.883Z,5.97
2022-08-27T03:11:48.666Z,5.80
2022-08-27T03:14:15.322Z,5.60
2022-08-27T03:16:41.972Z,6.65
2022-08-27T03:19:09.098Z,6.78
2022-08-27T03:21:36.368Z,7.13
2022-08-27T03:24:11.339Z,6.38
2022-08-27T03:26:38.729Z,8.52
2022-08-27T03:29:06.368Z,5.85
2022-08-27T03:31:33.247Z,5.38
2022-08-27T03:34:02.521Z,5.05
2022-08-27T03:36:30.678Z,4.82
2022-08-27T03:38:57.857Z,5.78
2022-08-27T03:41:45.537Z,5.40
2022-08-27T03:44:12.292Z,5.40
2022-08-27T03:46:48.793Z,5.68
2022-08-27T03:49:15.428Z,5.82
2022-08-27T03:51:48.018Z,5.88
2022-08-27T03:54:14.651Z,6.07
2022-08-27T03:56:41.724Z,6.10
2022-08-27T03:59:08.435Z,6.13
2022-08-27T04:01:35.134Z,5.38
2022-08-27T04:04:02.051Z,6.55
2022-08-27T04:06:28.658Z,6.05
2022-08-27T04:08:55.267Z,5.65
2022-08-27T04:11:22.207Z,6.10
2022-08-27T04:13:48.854Z,5.78
2022-08-27T04:16:15.568Z,6.10
2022-08-27T04:18:42.332Z,11.73
2022-08-27T04:21:11.450Z,6.80
2022-08-27T04:23:39.437Z,6.10
2022-08-27T04:26:07.153Z,4.57
2022-08-27T04:28:38.380Z,4.97
2022-08-27T04:31:16.380Z,6.32
2022-08-27T04:33:51.221Z,5.88
2022-08-27T04:36:18.626Z,5.38
2022-08-27T04:38:45.367Z,5.15
2022-08-27T04:41:26.553Z,5.85
2022-08-27T04:43:58.721Z,6.00
2022-08-27T04:46:31.781Z,5.05
2022-08-27T04:49:00.461Z,5.97
2022-08-27T04:51:29.059Z,4.80
2022-08-27T04:53:56.370Z,5.00
2022-08-27T04:56:26.525Z,4.70
2022-08-27T04:58:53.388Z,4.22
2022-08-27T05:01:23.800Z,4.60
2022-08-27T05:03:50.698Z,4.60
2022-08-27T05:06:17.753Z,4.72
2022-08-27T05:08:44.832Z,4.13
2022-08-27T05:11:15.148Z,5.32
2022-08-27T05:13:45.465Z,5.10
2022-08-27T05:16:15.508Z,5.10
2022-08-27T05:18:48.632Z,4.50
2022-08-27T05:21:21.336Z,3.90
2022-08-27T05:23:49.269Z,4.22
2022-08-27T05:26:16.375Z,5.43
2022-08-27T05:28:43.016Z,4.80
2022-08-27T05:31:12.368Z,4.10
2022-08-27T05:33:40.425Z,4.97
2022-08-27T05:36:14.619Z,4.78
2022-08-27T05:38:42.539Z,4.68
2022-08-27T05:41:15.246Z,4.68
2022-08-27T05:43:46.497Z,4.43
2022-08-27T05:46:19.051Z,4.57
2022-08-27T05:48:45.958Z,4.90
2022-08-27T05:51:25.705Z,6.70
2022-08-27T05:54:04.504Z,6.68
2022-08-27T05:56:35.653Z,5.47
2022-08-27T05:59:21.380Z,7.15
2022-08-27T06:01:51.245Z,5.60
2022-08-27T06:04:20.471Z,6.47
2022-08-27T06:06:48.791Z,5.78
2022-08-27T06:09:19.186Z,5.47
2022-08-27T06:11:46.572Z,5.68
2022-08-27T06:14:13.256Z,5.07
2022-08-27T06:16:40.589Z,5.47
2022-08-27T06:19:08.867Z,5.05
2022-08-27T06:21:35.534Z,5.82
2022-08-27T06:24:02.392Z,4.63
2022-08-27T06:26:29.421Z,4.80
2022-08-27T06:28:56.039Z,4.50
2022-08-27T06:31:25.444Z,4.82
2022-08-27T06:33:53.840Z,4.88
2022-08-27T06:36:26.055Z,5.07
2022-08-27T06:38:53.351Z,4.55
2022-08-27T06:41:23.965Z,4.72
2022-08-27T06:43:51.911Z,4.22
2022-08-27T06:46:22.134Z,5.10
2022-08-27T06:48:53.013Z,5.28
2022-08-27T06:51:26.329Z,4.85
2022-08-27T06:53:54.860Z,4.10
2022-08-27T06:56:21.938Z,5.18
2022-08-27T06:58:52.141Z,5.72
2022-08-27T07:01:22.582Z,4.57
2022-08-27T07:03:49.498Z,5.13
2022-08-27T07:06:17.867Z,4.72
2022-08-27T07:08:53.002Z,4.70
2022-08-27T07:11:21.087Z,4.25
2022-08-27T07:13:48.943Z,4.65
2022-08-27T07:16:19.256Z,5.43
2022-08-27T07:18:49.918Z,5.60
2022-08-27T07:21:16.884Z,4.50
2022-08-27T07:23:43.557Z,4.78
2022-08-27T07:26:11.700Z,4.55
2022-08-27T07:28:40.207Z,5.22
2022-08-27T07:31:09.240Z,4.72
2022-08-27T07:33:37.311Z,4.88
2022-08-27T07:36:05.982Z,4.97
2022-08-27T07:38:33.348Z,5.40
2022-08-27T07:41:04.356Z,7.78
2022-08-27T07:43:49.874Z,5.28
2022-08-27T07:46:22.242Z,5.63
2022-08-27T07:48:50.186Z,5.00
2022-08-27T07:51:19.642Z,5.57
2022-08-27T07:53:47.054Z,19.23
2022-08-27T07:56:14.594Z,5.03
2022-08-27T07:58:41.948Z,5.75
2022-08-27T08:01:08.908Z,4.28
2022-08-27T08:03:35.819Z,4.72
2022-08-27T08:06:09.176Z,3.95
2022-08-27T08:08:37.268Z,4.50
2022-08-27T08:11:06.227Z,4.90
2022-08-27T08:13:32.892Z,5.28
2022-08-27T08:15:59.834Z,4.10
2022-08-27T08:18:27.409Z,4.90
2022-08-27T08:20:58.979Z,6.97
2022-08-27T08:25:52.256Z,4.60
2022-08-27T08:28:18.851Z,5.47
2022-08-27T08:30:46.406Z,4.10
2022-08-27T08:33:13.549Z,4.78
2022-08-27T08:35:41.296Z,5.22
2022-08-27T08:38:08.753Z,4.28
2022-08-27T08:40:44.174Z,4.82
2022-08-27T08:43:24.203Z,4.65
2022-08-27T08:45:51.745Z,6.32
2022-08-27T08:48:22.289Z,4.75
2022-08-27T08:50:58.011Z,4.55
2022-08-27T08:53:50.998Z,4.18
2022-08-27T08:56:56.965Z,4.13
2022-08-27T08:59:33.679Z,10.25
2022-08-27T09:02:00.965Z,6.18
2022-08-27T09:04:29.799Z,14.02
2022-08-27T09:07:08.593Z,4.60
2022-08-27T09:09:44.871Z,3.70
2022-08-27T09:12:19.255Z,4.82
2022-08-27T09:14:54.809Z,4.53
2022-08-27T09:17:21.601Z,4.82
2022-08-27T09:19:48.353Z,3.88
2022-08-27T09:22:25.043Z,3.45
2022-08-27T09:25:10.479Z,3.35
2022-08-27T09:27:41.590Z,3.17
2022-08-27T09:30:13.117Z,2.75
2022-08-27T09:35:11.282Z,3.28
2022-08-27T09:37:48.158Z,2.85
2022-08-27T09:40:22.753Z,3.70
2022-08-27T09:43:16.010Z,3.25
2022-08-27T09:45:55.248Z,4.13
2022-08-27T09:48:27.753Z,3.67
2022-08-27T09:51:01.207Z,3.35
2022-08-27T09:53:37.503Z,3.22
2022-08-27T09:56:07.784Z,3.35
2022-08-27T09:58:51.635Z,3.20
2022-08-27T10:01:25.691Z,2.95
2022-08-27T10:04:07.857Z,3.15
2022-08-27T10:06:35.329Z,3.08
2022-08-27T10:09:17.685Z,2.85
2022-08-27T10:12:04.596Z,2.65
2022-08-27T10:14:42.671Z,3.38
2022-08-27T10:17:37.205Z,2.78
2022-08-27T10:20:30.551Z,3.08
2022-08-27T10:23:00.283Z,2.67
2022-08-27T10:25:32.965Z,3.20
2022-08-27T10:28:29.585Z,3.63
2022-08-27T10:31:05.529Z,3.38
2022-08-27T10:33:59.252Z,3.00
2022-08-27T10:36:37.964Z,3.20
2022-08-27T10:39:33.732Z,3.25
2022-08-27T10:42:12.116Z,3.47
2022-08-27T10:44:41.656Z,3.17
2022-08-27T10:47:14.263Z,3.75
2022-08-27T10:49:54.965Z,3.70
2022-08-27T10:52:37.180Z,3.67
2022-08-27T10:55:18.188Z,3.95
2022-08-27T10:58:18.747Z,3.42
2022-08-27T11:01:03.186Z,3.58
2022-08-27T11:03:40.195Z,3.15
2022-08-27T11:06:20.628Z,3.80
2022-08-27T11:09:07.643Z,3.80
2022-08-27T11:12:12.669Z,3.53
2022-08-27T11:14:37.577Z,4.18
2022-08-27T11:17:17.775Z,4.18
2022-08-27T11:20:16.376Z,3.60
2022-08-27T11:23:19.603Z,3.88
2022-08-27T11:26:15.661Z,4.03
2022-08-27T11:28:45.046Z,4.30
2022-08-27T11:31:25.285Z,3.80
2022-08-27T11:34:03.513Z,4.13
2022-08-27T11:36:58.127Z,4.45
2022-08-27T11:39:36.596Z,3.85
2022-08-27T11:42:33.332Z,3.85
2022-08-27T11:45:17.671Z,4.55
2022-08-27T11:47:56.619Z,3.55
2022-08-27T11:50:25.642Z,3.65
2022-08-27T11:53:06.623Z,3.20
2022-08-27T11:55:39.077Z,2.92
2022-08-27T11:58:18.054Z,2.83
2022-08-27T12:00:46.815Z,3.38
2022-08-27T12:03:19.644Z,3.22
2022-08-27T12:05:47.636Z,2.97
2022-08-27T12:08:34.958Z,5.22
2022-08-27T12:11:27.323Z,2.85
2022-08-27T12:14:27.527Z,3.30
2022-08-27T12:17:18.620Z,3.40
2022-08-27T12:20:10.077Z,2.92
2022-08-27T12:23:04.089Z,3.00
2022-08-27T12:25:31.301Z,3.10
2022-08-27T12:28:03.463Z,4.43
2022-08-27T12:30:36.360Z,3.28
2022-08-27T12:33:14.724Z,3.80
2022-08-27T12:35:51.607Z,3.22
2022-08-27T12:38:43.924Z,4.07
2022-08-27T12:41:32.543Z,3.03
2022-08-27T12:44:14.168Z,3.95
2022-08-27T12:46:52.276Z,3.42
2022-08-27T12:49:38.180Z,2.90
2022-08-27T12:52:19.149Z,3.42
2022-08-27T12:55:14.935Z,3.05
2022-08-27T12:57:53.868Z,3.50
2022-08-27T13:00:26.590Z,2.80
2022-08-27T13:03:19.582Z,3.90
2022-08-27T13:05:50.958Z,3.00
2022-08-27T13:10:50.692Z,3.20
2022-08-27T13:13:21.606Z,3.13
2022-08-27T13:16:02.280Z,2.92
2022-08-27T13:18:30.069Z,2.92
2022-08-27T13:21:22.016Z,2.78
2022-08-27T13:23:56.179Z,3.35
2022-08-27T13:26:26.440Z,3.63
2022-08-27T13:28:53.361Z,3.97
2022-08-27T13:31:23.939Z,3.35
2022-08-27T13:33:53.989Z,3.30
2022-08-27T13:36:35.852Z,3.40
2022-08-27T13:39:05.336Z,3.33
2022-08-27T13:41:34.923Z,3.55
2022-08-27T13:44:14.503Z,3.47
2022-08-27T13:46:48.659Z,3.50
2022-08-27T13:49:22.574Z,3.25
2022-08-27T13:51:50.791Z,3.85
2022-08-27T13:54:19.368Z,3.47
2022-08-27T13:56:49.115Z,3.38
2022-08-27T13:59:19.220Z,4.45
2022-08-27T14:02:09.560Z,3.42
2022-08-27T14:08:36.083Z,3.50
2022-08-27T14:11:09.281Z,3.95
2022-08-27T14:13:45.983Z,3.65
2022-08-27T14:16:26.332Z,3.85
2022-08-27T14:19:06.669Z,3.35
2022-08-27T14:21:35.470Z,3.35
2022-08-27T14:24:03.137Z,4.18
2022-08-27T14:26:30.224Z,3.38
2022-08-27T14:28:57.355Z,3.38
2022-08-27T14:31:24.792Z,3.13
2022-08-27T14:33:54.451Z,3.05
2022-08-27T14:36:22.641Z,2.67
2022-08-27T14:38:51.393Z,3.70
2022-08-27T14:41:21.674Z,3.15
2022-08-27T14:43:49.829Z,2.85
2022-08-27T14:46:25.501Z,4.95
2022-08-27T14:48:53.490Z,3.08
2022-08-27T14:51:29.307Z,3.58
2022-08-27T14:53:57.115Z,3.42
2022-08-27T14:56:25.864Z,3.47
2022-08-27T14:58:53.708Z,3.38
2022-08-27T15:01:23.565Z,2.88
2022-08-27T15:03:51.223Z,3.28
2022-08-27T15:06:19.159Z,3.42
2022-08-27T15:08:49.792Z,3.30
2022-08-27T15:11:23.891Z,3.28
2022-08-27T15:13:54.980Z,3.70
2022-08-27T15:16:30.836Z,3.67
2022-08-27T15:19:00.689Z,3.60
2022-08-27T15:21:30.460Z,3.67
2022-08-27T15:24:03.593Z,3.85
2022-08-27T15:26:31.471Z,3.22
2022-08-27T15:29:01.666Z,3.35
2022-08-27T15:31:30.860Z,3.30
2022-08-27T15:33:57.512Z,2.97
2022-08-27T15:36:25.281Z,3.90
2022-08-27T15:38:52.007Z,3.17
2022-08-27T15:41:18.610Z,3.72
2022-08-27T15:43:45.224Z,3.63
2022-08-27T15:46:12.006Z,3.72
2022-08-27T15:48:38.937Z,3.22
2022-08-27T15:51:09.541Z,3.05
2022-08-27T15:53:38.135Z,3.55
2022-08-27T15:56:07.846Z,3.35
2022-08-27T15:58:38.208Z,3.50
2022-08-27T16:01:11.328Z,3.20
2022-08-27T16:03:40.757Z,3.33
2022-08-27T16:06:08.887Z,3.33
2022-08-27T16:08:41.748Z,3.47
2022-08-27T16:11:09.212Z,2.88
2022-08-27T16:13:36.737Z,3.55
2022-08-27T16:16:04.039Z,2.83
2022-08-27T16:18:33.072Z,3.08
2022-08-27T16:21:02.461Z,3.08
2022-08-27T16:23:30.565Z,3.15
2022-08-27T16:25:57.732Z,3.58
2022-08-27T16:28:25.013Z,3.10
2022-08-27T16:30:54.371Z,3.22
2022-08-27T16:33:21.262Z,3.85
2022-08-27T16:35:48.363Z,3.08
2022-08-27T16:38:15.145Z,3.38
2022-08-27T16:40:49.422Z,3.17
2022-08-27T16:43:21.164Z,3.10
2022-08-27T16:45:50.245Z,4.40
2022-08-27T16:48:36.363Z,2.92
2022-08-27T16:51:05.547Z,3.03
2022-08-27T16:53:34.650Z,3.75
2022-08-27T16:56:01.758Z,3.40
2022-08-27T16:58:31.041Z,3.63
2022-08-27T17:01:09.485Z,3.63
2022-08-27T17:04:07.640Z,3.35
2022-08-27T17:06:34.719Z,3.63
2022-08-27T17:09:05.172Z,3.88
2022-08-27T17:11:33.281Z,3.67
2022-08-27T17:14:02.456Z,3.15
2022-08-27T17:16:31.518Z,3.40
2022-08-27T17:18:59.286Z,3.75
2022-08-27T17:21:29.898Z,3.75
2022-08-27T17:23:59.482Z,4.70
2022-08-27T17:26:26.547Z,3.95
2022-08-27T17:28:53.705Z,4.57
2022-08-27T17:31:28.438Z,4.13
2022-08-27T17:33:59.326Z,4.80
2022-08-27T17:36:28.248Z,8.02
2022-08-27T17:38:54.979Z,4.25
2022-08-27T17:41:33.903Z,4.38
2022-08-27T17:44:05.198Z,3.95
2022-08-27T17:46:31.957Z,3.53
2022-08-27T17:48:59.671Z,3.65
2022-08-27T17:51:27.524Z,3.78
2022-08-27T17:54:00.623Z,4.88
2022-08-27T17:56:27.877Z,5.18
2022-08-27T17:58:55.110Z,4.13
2022-08-27T18:01:32.187Z,5.85
2022-08-27T18:03:59.803Z,4.70
2022-08-27T18:06:27.917Z,5.07
2022-08-27T18:08:54.563Z,5.72
2022-08-27T18:11:21.452Z,5.35
2022-08-27T18:13:52.578Z,5.20
2022-08-27T18:16:19.803Z,4.95
2022-08-27T18:18:46.652Z,6.28
2022-08-27T18:21:13.985Z,5.30
2022-08-27T18:23:52.180Z,6.07
2022-08-27T18:26:21.634Z,6.03
2022-08-27T18:28:49.059Z,6.70
2022-08-27T18:31:18.405Z,8.15
2022-08-27T18:33:45.284Z,7.35
2022-08-27T18:36:12.078Z,8.02
2022-08-27T18:38:38.830Z,13.30
2022-08-27T18:41:08.467Z,19.00
2022-08-27T18:43:36.021Z,7.20
2022-08-27T18:46:04.590Z,12.13
2022-08-27T18:48:31.763Z,11.82
2022-08-27T18:51:00.531Z,12.27
2022-08-27T18:53:30.197Z,12.00
2022-08-27T18:55:56.847Z,10.13
2022-08-27T18:58:24.306Z,10.98
2022-08-27T19:00:54.673Z,8.85
2022-08-27T19:03:26.277Z,5.88
2022-08-27T19:05:55.117Z,7.13
2022-08-27T19:08:23.847Z,7.05
2022-08-27T19:10:50.872Z,5.55
2022-08-27T19:13:17.563Z,6.35
2022-08-27T19:15:52.437Z,5.38
2022-08-27T19:18:19.324Z,5.20
2022-08-27T19:20:45.946Z,5.57
2022-08-27T19:23:12.535Z,6.72
2022-08-27T19:25:39.225Z,9.88
2022-08-27T19:28:06.185Z,5.47
2022-08-27T19:30:32.832Z,9.15
2022-08-27T19:32:59.524Z,6.35
2022-08-27T19:35:26.210Z,7.20
2022-08-27T19:37:53.544Z,5.05
2022-08-27T19:40:22.080Z,4.75
2022-08-27T19:42:49.632Z,8.60
2022-08-27T19:45:22.972Z,6.10
2022-08-27T19:47:51.003Z,5.00
2022-08-27T19:50:19.036Z,7.75
2022-08-27T19:52:47.423Z,7.03
2022-08-27T19:55:14.998Z,6.15
2022-08-27T19:57:42.826Z,5.90
2022-08-27T20:00:12.268Z,6.40
2022-08-27T20:02:38.967Z,6.65
2022-08-27T20:05:22.043Z,5.35
2022-08-27T20:07:53.433Z,4.50
2022-08-27T20:10:22.025Z,8.82
2022-08-27T20:12:49.539Z,7.88
2022-08-27T20:15:17.149Z,5.97
2022-08-27T20:17:45.236Z,4.97
2022-08-27T20:20:12.692Z,7.90
2022-08-27T20:22:39.821Z,5.80
2022-08-27T20:25:07.427Z,7.88
2022-08-27T20:27:34.933Z,7.75
2022-08-27T20:30:04.673Z,5.60
2022-08-27T20:32:31.373Z,7.13
2022-08-27T20:34:59.050Z,8.13
2022-08-27T20:37:25.887Z,7.07
2022-08-27T20:39:52.846Z,7.00
2022-08-27T20:42:20.623Z,6.15
2022-08-27T20:44:47.795Z,9.63
2022-08-27T20:47:15.605Z,9.77
2022-08-27T20:49:44.516Z,8.93
2022-08-27T20:52:13.095Z,9.55
2022-08-27T20:54:40.736Z,7.57
2022-08-27T20:57:08.779Z,6.25
2022-08-27T20:59:54.161Z,9.75
2022-08-27T21:02:24.544Z,11.63
2022-08-27T21:04:52.114Z,7.82
2022-08-27T21:07:20.435Z,9.00
2022-08-27T21:09:56.059Z,9.18
2022-08-27T21:12:27.675Z,8.98
2022-08-27T21:14:56.048Z,7.53
2022-08-27T21:17:25.023Z,4.88
2022-08-27T21:19:51.832Z,5.20
2022-08-27T21:22:19.414Z,5.45
2022-08-27T21:24:48.758Z,5.13
2022-08-27T21:27:17.067Z,5.63
2022-08-27T21:29:44.845Z,8.15
2022-08-27T21:32:12.448Z,8.63
2022-08-27T21:34:39.721Z,7.53
2022-08-27T21:37:06.320Z,5.40
2022-08-27T21:39:34.272Z,4.60
2022-08-27T21:42:01.635Z,6.95
2022-08-27T21:44:29.900Z,4.90
2022-08-27T21:46:57.366Z,8.93
2022-08-27T21:49:24.143Z,6.88
2022-08-27T21:51:50.888Z,5.40
2022-08-27T21:54:17.597Z,5.07
2022-08-27T21:56:45.058Z,6.30
2022-08-27T21:59:11.922Z,5.80
2022-08-27T22:01:39.478Z,5.35
2022-08-27T22:04:06.290Z,5.57
2022-08-27T22:06:33.057Z,4.25
2022-08-27T22:08:59.869Z,5.35
2022-08-27T22:11:26.911Z,4.97
2022-08-27T22:13:53.926Z,5.00
2022-08-27T22:16:20.663Z,5.72
2022-08-27T22:18:47.524Z,6.03
2022-08-27T22:21:21.089Z,5.80
2022-08-27T22:23:47.681Z,7.00
2022-08-27T22:26:14.245Z,6.20
2022-08-27T22:28:40.836Z,7.95
2022-08-27T22:31:08.413Z,4.97
2022-08-27T22:33:35.236Z,5.38
2022-08-27T22:36:02.032Z,5.00
2022-08-27T22:38:28.651Z,4.55
2022-08-27T22:40:55.296Z,4.55
2022-08-27T22:43:21.929Z,4.97
2022-08-27T22:45:48.601Z,7.20
2022-08-27T22:48:15.286Z,4.68
2022-08-27T22:50:41.938Z,4.68
2022-08-27T22:53:09.316Z,5.00
2022-08-27T22:55:36.263Z,4.53
2022-08-27T22:58:03.789Z,5.38
2022-08-27T23:00:34.237Z,6.57
2022-08-27T23:03:05.428Z,7.20
2022-08-27T23:05:41.364Z,7.35
2022-08-27T23:08:10.339Z,5.32
2022-08-27T23:10:38.477Z,6.20
2022-08-27T23:13:06.909Z,6.80
2022-08-27T23:15:34.031Z,6.78
2022-08-27T23:18:01.660Z,6.53
2022-08-27T23:20:29.304Z,4.95
2022-08-27T23:22:56.442Z,4.82
2022-08-27T23:25:43.689Z,5.57
2022-08-27T23:28:14.708Z,4.68
2022-08-27T23:30:42.859Z,6.10
2022-08-27T23:33:09.706Z,6.07
2022-08-27T23:35:36.495Z,5.38
2022-08-27T23:38:03.895Z,4.90
2022-08-27T23:40:30.594Z,4.90
2022-08-27T23:42:58.662Z,5.82
2022-08-27T23:45:26.375Z,5.22
2022-08-27T23:47:53.462Z,5.32
2022-08-27T23:50:25.175Z,5.28
2022-08-27T23:53:01.882Z,7.22
2022-08-27T23:55:29.109Z,5.68
2022-08-27T23:57:57.770Z,6.75
